Allagash, Maine
Current Conditions -  °F | °C
As of 5:40 AM on Sunday 26 Oct 2014 (Local Time) from KFVE Reporting Station
Light Rain Light Rain  
Wind Chill: -1°   Ceiling: 400
Heat Index:   Visibility: 10mi
Dew Point:   Wind: 8mph
Humidity: 100%   Direction: 100°E
Pressure: 29.35"   Gusts: NA
Location:  47.1951°N, 69.2728°W
Report Text: KFVE 260940Z AUTO 10007KT 10SM -RA OVC004 03/03 A2935 RMK AO2 P0003 T00280028
Loading
Personal Weather Stations






























Interactive Weather Map
Tropical Storm Tracking
New forecast layout! Learn more

10-Day Weather Forecast

Advertisements
Track Severe Weather on mobile